createdAt,value
2022-10-09T00:00:25.173Z,2.63
2022-10-09T00:05:27.003Z,3.13
2022-10-09T00:10:26.345Z,2.75
2022-10-09T00:15:25.141Z,3.10
2022-10-09T00:20:23.763Z,2.72
2022-10-09T00:25:22.633Z,2.45
2022-10-09T00:30:21.225Z,2.55
2022-10-09T00:35:20.356Z,2.40
2022-10-09T00:40:19.248Z,2.95
2022-10-09T00:45:21.199Z,2.55
2022-10-09T00:50:23.778Z,2.72
2022-10-09T00:55:23.632Z,2.25
2022-10-09T01:00:22.996Z,2.30
2022-10-09T01:05:39.504Z,2.75
2022-10-09T01:10:48.574Z,2.55
2022-10-09T01:16:00.842Z,2.50
2022-10-09T01:21:10.154Z,2.88
2022-10-09T01:26:12.730Z,2.97
2022-10-09T01:31:12.850Z,2.78
2022-10-09T01:36:11.908Z,3.60
2022-10-09T01:41:11.286Z,2.90
2022-10-09T01:46:36.326Z,3.33
2022-10-09T01:51:53.219Z,4.25
2022-10-09T01:56:55.285Z,4.10
2022-10-09T02:01:56.118Z,3.67
2022-10-09T02:06:55.465Z,3.90
2022-10-09T02:11:57.257Z,3.47
2022-10-09T02:17:05.949Z,3.53
2022-10-09T02:22:15.032Z,4.07
2022-10-09T02:27:15.280Z,3.50
2022-10-09T02:32:14.482Z,3.95
2022-10-09T02:37:13.288Z,3.70
2022-10-09T02:42:11.925Z,3.80
2022-10-09T02:47:10.703Z,3.60
2022-10-09T02:52:09.389Z,3.88
2022-10-09T02:57:08.140Z,3.20
2022-10-09T03:02:06.863Z,3.60
2022-10-09T03:07:05.685Z,3.85
2022-10-09T03:12:04.679Z,3.67
2022-10-09T03:17:03.355Z,3.58
2022-10-09T03:22:01.956Z,3.05
2022-10-09T03:27:00.522Z,3.10
2022-10-09T03:31:59.221Z,3.67
2022-10-09T03:36:58.193Z,3.28
2022-10-09T03:41:56.772Z,3.28
2022-10-09T03:46:55.508Z,2.95
2022-10-09T03:51:54.143Z,2.75
2022-10-09T03:56:52.821Z,2.88
2022-10-09T04:01:52.070Z,3.55
2022-10-09T04:06:50.654Z,3.63
2022-10-09T04:11:49.323Z,2.65
2022-10-09T04:16:48.001Z,2.60
2022-10-09T04:21:46.737Z,2.83
2022-10-09T04:26:45.436Z,2.88
2022-10-09T04:31:44.102Z,3.03
2022-10-09T04:36:42.948Z,3.60
2022-10-09T04:41:41.675Z,3.28
2022-10-09T04:46:40.334Z,2.63
2022-10-09T04:51:39.073Z,2.75
2022-10-09T04:56:37.754Z,2.60
2022-10-09T05:01:38.452Z,2.30
2022-10-09T05:06:37.395Z,2.70
2022-10-09T05:11:40.396Z,3.45
2022-10-09T05:17:08.143Z,2.53
2022-10-09T05:22:01.159Z,2.40
2022-10-09T05:26:59.759Z,2.47
2022-10-09T05:31:58.456Z,2.40
2022-10-09T05:36:57.120Z,1.73
2022-10-09T05:41:55.852Z,2.20
2022-10-09T05:46:55.335Z,2.00
2022-10-09T05:51:56.093Z,2.03
2022-10-09T05:56:54.891Z,2.10
2022-10-09T06:01:54.973Z,2.35
2022-10-09T06:06:53.787Z,1.80
2022-10-09T06:11:54.423Z,2.28
2022-10-09T06:16:53.233Z,2.47
2022-10-09T06:21:52.148Z,1.83
2022-10-09T06:26:50.770Z,2.72
2022-10-09T06:31:49.484Z,2.95
2022-10-09T06:36:48.643Z,2.13
2022-10-09T06:41:47.235Z,2.20
2022-10-09T06:47:01.847Z,2.95
2022-10-09T06:52:00.613Z,3.10
2022-10-09T06:56:59.244Z,2.78
2022-10-09T07:01:58.154Z,3.50
2022-10-09T07:06:57.205Z,3.35
2022-10-09T07:11:55.989Z,3.88
2022-10-09T07:16:54.674Z,4.00
2022-10-09T07:21:53.376Z,3.35
2022-10-09T07:26:52.282Z,4.63
2022-10-09T07:31:50.932Z,3.83
2022-10-09T07:36:49.569Z,4.07
2022-10-09T07:41:52.239Z,4.00
2022-10-09T07:46:51.719Z,3.17
2022-10-09T07:51:50.900Z,3.13
2022-10-09T07:56:49.582Z,3.35
2022-10-09T08:01:48.315Z,3.40
2022-10-09T08:06:47.043Z,3.50
2022-10-09T08:11:45.923Z,3.90
2022-10-09T08:16:44.764Z,2.97
2022-10-09T08:21:43.573Z,2.72
2022-10-09T08:26:44.141Z,2.67
2022-10-09T08:31:46.561Z,2.13
2022-10-09T08:36:45.308Z,2.83
2022-10-09T08:41:50.371Z,2.63
2022-10-09T08:46:51.928Z,2.17
2022-10-09T08:51:50.851Z,2.63
2022-10-09T08:56:50.713Z,2.30
2022-10-09T09:02:07.877Z,1.80
2022-10-09T09:07:34.741Z,2.35
2022-10-09T09:13:15.435Z,1.83
2022-10-09T09:18:43.336Z,2.33
2022-10-09T09:23:46.848Z,2.08
2022-10-09T09:28:49.955Z,1.75
2022-10-09T09:39:13.525Z,2.13
2022-10-09T09:44:06.207Z,1.90
2022-10-09T09:49:19.701Z,1.63
2022-10-09T09:54:24.463Z,1.50
2022-10-09T09:59:31.640Z,1.60
2022-10-09T10:04:30.493Z,1.27
2022-10-09T10:09:29.306Z,1.25
2022-10-09T10:14:28.532Z,1.35
2022-10-09T10:19:30.089Z,1.30
2022-10-09T10:24:44.488Z,1.05
2022-10-09T10:29:45.912Z,1.10
2022-10-09T10:34:50.444Z,1.10
2022-10-09T10:39:58.483Z,1.35
2022-10-09T10:45:04.302Z,1.38
2022-10-09T10:50:03.092Z,1.33
2022-10-09T10:55:26.157Z,1.08
2022-10-09T11:00:26.476Z,0.60
2022-10-09T11:05:43.703Z,1.10
2022-10-09T11:11:08.847Z,0.60
2022-10-09T11:16:33.748Z,0.90
2022-10-09T11:21:47.630Z,0.93
2022-10-09T11:27:13.939Z,0.63
2022-10-09T11:32:22.609Z,0.98
2022-10-09T11:37:27.000Z,0.93
2022-10-09T11:42:26.790Z,0.73
2022-10-09T11:47:59.431Z,0.68
2022-10-09T11:53:04.187Z,1.05
2022-10-09T11:58:18.429Z,0.82
2022-10-09T12:03:38.587Z,1.08
2022-10-09T12:08:59.804Z,0.95
2022-10-09T12:14:04.588Z,1.13
2022-10-09T12:19:26.028Z,0.98
2022-10-09T12:24:29.112Z,1.20
2022-10-09T12:29:50.185Z,0.90
2022-10-09T12:34:51.299Z,0.82
2022-10-09T12:39:50.420Z,1.10
2022-10-09T12:44:50.855Z,0.95
2022-10-09T12:49:59.646Z,1.08
2022-10-09T12:54:58.503Z,0.80
2022-10-09T12:59:58.298Z,0.90
2022-10-09T13:05:00.866Z,0.82
2022-10-09T13:10:03.005Z,1.27
2022-10-09T13:15:05.542Z,1.17
2022-10-09T13:20:13.547Z,1.05
2022-10-09T13:25:12.309Z,0.93
2022-10-09T13:30:12.007Z,0.73
2022-10-09T13:35:11.092Z,0.85
2022-10-09T13:40:19.797Z,0.85
2022-10-09T13:45:18.640Z,1.60
2022-10-09T13:50:17.971Z,1.10
2022-10-09T13:55:17.116Z,0.95
2022-10-09T14:00:15.837Z,1.00
2022-10-09T14:05:14.704Z,1.10
2022-10-09T14:10:13.790Z,0.98
2022-10-09T14:15:12.532Z,1.10
2022-10-09T14:20:11.491Z,0.90
2022-10-09T14:25:10.584Z,0.82
2022-10-09T14:30:10.141Z,1.20
2022-10-09T14:35:09.226Z,0.80
2022-10-09T14:40:08.717Z,1.30
2022-10-09T14:45:09.063Z,1.10
2022-10-09T14:50:08.527Z,1.15
2022-10-09T14:55:07.755Z,0.80
2022-10-09T15:00:08.096Z,1.17
2022-10-09T15:05:07.167Z,0.93
2022-10-09T15:10:06.228Z,1.23
2022-10-09T15:15:05.148Z,0.85
2022-10-09T15:20:03.993Z,1.42
2022-10-09T15:25:02.779Z,1.90
2022-10-09T15:30:02.291Z,1.15
2022-10-09T15:35:01.874Z,1.10
2022-10-09T15:40:00.538Z,0.60
2022-10-09T15:44:59.307Z,0.73
2022-10-09T15:49:58.175Z,1.33
2022-10-09T15:54:56.915Z,1.30
2022-10-09T15:59:55.686Z,1.42
2022-10-09T16:04:54.467Z,1.50
2022-10-09T16:09:53.114Z,1.92
2022-10-09T16:14:51.879Z,2.38
2022-10-09T16:19:50.671Z,2.50
2022-10-09T16:24:49.429Z,1.92
2022-10-09T16:29:48.680Z,2.80
2022-10-09T16:34:49.633Z,2.17
2022-10-09T16:39:49.434Z,2.67
2022-10-09T16:44:48.727Z,2.72
2022-10-09T16:49:47.757Z,1.90
2022-10-09T16:54:48.398Z,1.90
2022-10-09T16:59:47.447Z,2.00
2022-10-09T17:04:46.578Z,1.73
2022-10-09T17:09:45.318Z,2.38
2022-10-09T17:14:44.198Z,2.10
2022-10-09T17:19:43.620Z,2.20
2022-10-09T17:24:42.341Z,2.50
2022-10-09T17:29:41.213Z,3.60
2022-10-09T17:34:45.623Z,3.20
2022-10-09T17:39:48.548Z,3.05
2022-10-09T17:44:50.066Z,2.20
2022-10-09T17:49:48.741Z,3.90
2022-10-09T17:54:47.434Z,3.50
2022-10-09T17:59:46.346Z,7.15
2022-10-09T18:04:45.305Z,6.10
2022-10-09T18:09:45.096Z,4.55
2022-10-09T18:14:43.811Z,5.28
2022-10-09T18:19:42.644Z,4.10
2022-10-09T18:24:41.296Z,3.70
2022-10-09T18:29:39.961Z,3.55
2022-10-09T18:34:39.364Z,4.30
2022-10-09T18:39:38.592Z,3.38
2022-10-09T18:44:40.330Z,3.40
2022-10-09T18:49:43.666Z,3.47
2022-10-09T18:59:42.557Z,3.90
2022-10-09T19:04:41.249Z,4.57
2022-10-09T19:09:40.651Z,4.13
2022-10-09T19:14:39.354Z,4.68
2022-10-09T19:19:38.717Z,4.75
2022-10-09T19:24:37.419Z,3.70
2022-10-09T19:29:36.869Z,3.10
2022-10-09T19:34:35.748Z,3.33
2022-10-09T19:39:34.793Z,3.55
2022-10-09T19:44:33.532Z,2.63
2022-10-09T19:49:32.431Z,3.20
2022-10-09T19:54:32.852Z,2.70
2022-10-09T19:59:31.876Z,3.13
2022-10-09T20:04:30.653Z,3.25
2022-10-09T20:09:29.379Z,3.65
2022-10-09T20:14:28.738Z,3.70
2022-10-09T20:19:30.896Z,3.03
2022-10-09T20:24:29.785Z,2.72
2022-10-09T20:29:28.507Z,2.80
2022-10-09T20:34:27.780Z,3.00
2022-10-09T20:39:26.506Z,3.65
2022-10-09T20:44:25.215Z,3.20
2022-10-09T20:49:24.078Z,3.05
2022-10-09T20:54:23.289Z,2.80
2022-10-09T20:59:22.114Z,3.55
2022-10-09T21:04:20.841Z,2.92
2022-10-09T21:09:19.745Z,3.10
2022-10-09T21:14:18.611Z,2.50
2022-10-09T21:19:17.478Z,2.70
2022-10-09T21:24:16.280Z,2.85
2022-10-09T21:29:15.117Z,3.80
2022-10-09T21:34:13.777Z,2.92
2022-10-09T21:39:12.605Z,2.70
2022-10-09T21:44:11.532Z,2.65
2022-10-09T21:49:23.118Z,2.67
2022-10-09T21:54:21.946Z,2.78
2022-10-09T21:59:20.649Z,3.17
2022-10-09T22:04:19.928Z,2.92
2022-10-09T22:09:20.481Z,2.97
2022-10-09T22:14:19.368Z,2.85
2022-10-09T22:19:19.043Z,2.72
2022-10-09T22:24:17.857Z,3.95
2022-10-09T22:29:16.613Z,3.05
2022-10-09T22:34:15.265Z,2.85
2022-10-09T22:39:14.020Z,2.88
2022-10-09T22:44:12.824Z,3.45
2022-10-09T22:49:14.228Z,3.20
2022-10-09T22:54:13.312Z,2.55
2022-10-09T22:59:14.559Z,3.20
2022-10-09T23:04:15.532Z,3.22
2022-10-09T23:09:15.344Z,3.55
2022-10-09T23:14:14.709Z,2.58
2022-10-09T23:19:13.545Z,3.15
2022-10-09T23:24:17.372Z,3.10
2022-10-09T23:29:18.031Z,2.90
2022-10-09T23:34:16.830Z,2.72
2022-10-09T23:39:15.558Z,3.58
2022-10-09T23:44:15.321Z,2.95
2022-10-09T23:49:16.541Z,2.80
2022-10-09T23:54:15.311Z,2.45
2022-10-09T23:59:14.046Z,2.60
